Time;durP1;ratioP1;P1;durP2;ratioP2;P2;SDS_P1;SDS_P2;PMS_P1;PMS_P2;Temp;Humidity;BMP_temperature;BMP_pressure;BME280_temperature;BME280_humidity;BME280_pressure;Samples;Min_cycle;Max_cycle;Signal;HPM_P1;HPM_P2
2022/07/17 00:00:35;;;;;;;6.80;2.00;;;16.40;99.90;;;;;;5053821;28;20446;-85
2022/07/17 00:03:01;;;;;;;4.50;1.53;;;16.40;99.90;;;;;;5054553;28;20480;-82
2022/07/17 00:05:28;;;;;;;2.60;1.30;;;16.40;99.90;;;;;;5043714;28;20552;-83
2022/07/17 00:07:55;;;;;;;5.27;1.80;;;16.30;99.90;;;;;;5043725;28;20457;-84
2022/07/17 00:10:22;;;;;;;2.73;1.33;;;16.30;99.90;;;;;;5044081;28;20456;-83
2022/07/17 00:12:49;;;;;;;3.73;1.43;;;16.30;99.90;;;;;;5043284;28;20576;-83
2022/07/17 00:15:16;;;;;;;7.60;1.60;;;16.20;99.90;;;;;;5043756;28;20492;-83
2022/07/17 00:17:44;;;;;;;3.60;1.47;;;16.20;99.90;;;;;;5043295;28;20468;-83
2022/07/17 00:20:12;;;;;;;4.90;1.63;;;16.20;99.90;;;;;;5044128;28;20463;-83
2022/07/17 00:22:40;;;;;;;3.67;1.70;;;16.10;99.90;;;;;;5044057;28;20905;-81
2022/07/17 00:25:07;;;;;;;3.53;1.20;;;16.10;99.90;;;;;;5042974;28;20459;-84
2022/07/17 00:27:34;;;;;;;3.20;1.20;;;16.10;99.90;;;;;;5043583;28;20828;-84
2022/07/17 00:30:01;;;;;;;5.70;1.80;;;16.10;99.90;;;;;;5043119;28;20491;-83
2022/07/17 00:32:28;;;;;;;4.83;1.40;;;16.00;99.90;;;;;;5044082;28;20484;-84
2022/07/17 00:34:57;;;;;;;3.80;1.27;;;16.00;99.90;;;;;;5043667;28;20576;-83
2022/07/17 00:37:24;;;;;;;6.63;2.33;;;16.00;99.90;;;;;;5044235;28;20450;-83
2022/07/17 00:39:51;;;;;;;7.93;1.60;;;15.90;99.90;;;;;;5044169;28;20472;-84
2022/07/17 00:42:19;;;;;;;3.70;1.40;;;15.90;99.90;;;;;;5045930;28;20477;-84
2022/07/17 00:44:46;;;;;;;4.40;1.60;;;15.90;99.90;;;;;;5044287;28;20507;-84
2022/07/17 00:47:14;;;;;;;4.57;1.83;;;15.80;99.90;;;;;;5044575;28;20491;-84
2022/07/17 00:49:41;;;;;;;3.80;1.20;;;15.90;99.90;;;;;;5043524;28;20492;-83
2022/07/17 00:52:10;;;;;;;4.70;1.63;;;15.80;99.90;;;;;;5045170;28;20494;-83
2022/07/17 00:54:40;;;;;;;5.00;1.97;;;15.80;99.90;;;;;;5044731;28;20495;-84
2022/07/17 00:57:09;;;;;;;3.80;1.17;;;15.80;99.90;;;;;;5045001;28;20976;-84
2022/07/17 00:59:37;;;;;;;3.97;1.30;;;15.70;99.90;;;;;;5044835;28;20460;-84
2022/07/17 01:02:05;;;;;;;3.50;1.37;;;15.70;99.90;;;;;;5046070;28;20455;-84
2022/07/17 01:04:33;;;;;;;4.10;1.70;;;15.70;99.90;;;;;;5045064;28;20504;-84
2022/07/17 01:07:01;;;;;;;3.80;1.60;;;15.70;99.90;;;;;;5046582;28;20484;-84
2022/07/17 01:09:29;;;;;;;3.77;1.40;;;15.70;99.90;;;;;;5047132;28;20453;-85
2022/07/17 01:11:57;;;;;;;3.07;1.50;;;15.60;99.90;;;;;;5046817;28;20461;-84
2022/07/17 01:14:25;;;;;;;3.57;1.30;;;15.60;99.90;;;;;;5046153;28;20519;-84
2022/07/17 01:16:53;;;;;;;5.57;1.50;;;15.60;99.90;;;;;;5039410;28;20495;-84
2022/07/17 01:19:20;;;;;;;5.93;2.03;;;15.60;99.90;;;;;;5046889;28;20451;-84
2022/07/17 01:21:50;;;;;;;5.20;1.60;;;15.60;99.90;;;;;;5046875;28;20452;-83
2022/07/17 01:24:19;;;;;;;5.73;1.77;;;15.60;99.90;;;;;;5046511;28;20507;-84
2022/07/17 01:26:48;;;;;;;5.03;1.60;;;15.60;99.90;;;;;;5053402;28;20501;-83
2022/07/17 01:29:17;;;;;;;4.63;1.57;;;15.60;99.90;;;;;;5044864;28;20900;-84
2022/07/17 01:31:44;;;;;;;3.03;1.40;;;15.60;99.90;;;;;;5043638;28;20484;-83
2022/07/17 01:34:13;;;;;;;5.50;1.80;;;15.50;99.90;;;;;;5042272;28;20526;-83
2022/07/17 01:36:41;;;;;;;5.83;1.53;;;15.50;99.90;;;;;;5093044;22;20864;-81
2022/07/17 01:39:09;;;;;;;4.67;1.70;;;15.50;99.90;;;;;;5063350;28;20536;-81
2022/07/17 01:41:36;;;;;;;3.43;1.30;;;15.40;99.90;;;;;;5061109;28;20828;-80
2022/07/17 01:44:04;;;;;;;5.17;1.87;;;15.40;99.90;;;;;;5064280;28;20471;-81
2022/07/17 01:46:31;;;;;;;6.40;1.97;;;15.40;99.90;;;;;;5063683;28;20475;-82
2022/07/17 01:48:58;;;;;;;4.63;1.77;;;15.30;99.90;;;;;;5063220;28;20471;-82
2022/07/17 01:51:24;;;;;;;2.80;1.30;;;15.30;99.90;;;;;;5062215;28;20521;-81
2022/07/17 01:53:51;;;;;;;4.53;1.33;;;15.30;99.90;;;;;;5061870;28;21119;-81
2022/07/17 01:56:19;;;;;;;3.00;1.43;;;15.20;99.90;;;;;;5063087;28;20479;-82
2022/07/17 01:58:46;;;;;;;6.60;1.83;;;15.20;99.90;;;;;;5064195;28;20960;-81
2022/07/17 02:01:13;;;;;;;3.23;1.43;;;15.20;99.90;;;;;;5062203;28;20515;-81
2022/07/17 02:03:40;;;;;;;6.63;2.03;;;15.10;99.90;;;;;;5061509;28;20462;-81
2022/07/17 02:06:09;;;;;;;4.87;1.50;;;15.10;99.90;;;;;;5059836;28;20864;-81
2022/07/17 02:08:36;;;;;;;3.47;1.63;;;15.10;99.90;;;;;;5058088;28;20490;-81
2022/07/17 02:11:03;;;;;;;4.93;1.53;;;15.10;99.90;;;;;;5062881;28;20512;-81
2022/07/17 02:13:31;;;;;;;3.80;1.70;;;15.10;99.90;;;;;;5053404;28;20497;-82
2022/07/17 02:15:58;;;;;;;4.70;2.00;;;15.00;99.90;;;;;;5050107;28;20515;-82
2022/07/17 02:18:25;;;;;;;6.87;2.03;;;15.00;99.90;;;;;;5063049;28;20491;-81
2022/07/17 02:20:52;;;;;;;5.10;2.40;;;15.10;99.90;;;;;;5064663;28;20589;-81
2022/07/17 02:23:18;;;;;;;4.37;2.10;;;15.10;99.90;;;;;;5063328;28;20816;-82
2022/07/17 02:25:45;;;;;;;4.43;2.20;;;15.00;99.90;;;;;;5063347;28;20521;-79
2022/07/17 02:28:12;;;;;;;6.83;2.37;;;15.00;99.90;;;;;;5059969;28;20468;-80
2022/07/17 02:30:40;;;;;;;4.20;1.67;;;15.00;99.90;;;;;;5063964;28;20489;-81
2022/07/17 02:33:07;;;;;;;6.97;2.10;;;15.00;99.90;;;;;;5064993;28;20526;-81
2022/07/17 02:35:34;;;;;;;4.60;1.53;;;15.00;99.90;;;;;;5064980;28;20519;-81
2022/07/17 02:38:02;;;;;;;4.50;1.80;;;15.00;99.90;;;;;;5065769;28;20483;-82
2022/07/17 02:40:28;;;;;;;6.00;1.73;;;15.00;99.90;;;;;;5065189;28;20488;-81
2022/07/17 02:42:55;;;;;;;4.83;1.83;;;14.90;99.90;;;;;;5067454;28;20460;-81
2022/07/17 02:45:24;;;;;;;5.83;2.13;;;14.90;99.90;;;;;;5066340;28;20480;-82
2022/07/17 02:47:53;;;;;;;5.47;2.20;;;14.90;99.90;;;;;;5066510;28;20458;-82
2022/07/17 02:50:20;;;;;;;9.47;2.93;;;14.90;99.90;;;;;;5061340;28;20802;-81
2022/07/17 02:52:49;;;;;;;5.20;2.50;;;14.80;99.90;;;;;;5062851;28;20480;-80
2022/07/17 02:55:17;;;;;;;6.10;2.10;;;14.80;99.90;;;;;;5063141;28;20483;-82
2022/07/17 02:57:46;;;;;;;6.33;1.60;;;14.80;99.90;;;;;;5062745;28;20452;-80
2022/07/17 03:00:16;;;;;;;5.70;1.70;;;14.80;99.90;;;;;;5062500;28;20513;-80
2022/07/17 03:02:43;;;;;;;4.43;1.80;;;14.80;99.90;;;;;;5062933;28;20884;-82
2022/07/17 03:05:12;;;;;;;6.73;2.10;;;14.80;99.90;;;;;;5062303;28;20481;-82
2022/07/17 03:07:39;;;;;;;7.40;1.90;;;14.80;99.90;;;;;;5063225;28;20895;-81
2022/07/17 03:10:07;;;;;;;5.77;1.70;;;14.80;99.90;;;;;;5062862;28;20486;-82
2022/07/17 03:12:34;;;;;;;4.10;1.40;;;14.80;99.90;;;;;;5062543;28;20925;-81
2022/07/17 03:15:01;;;;;;;5.03;1.63;;;14.80;99.90;;;;;;5065979;28;20484;-81
2022/07/17 03:17:28;;;;;;;6.53;2.43;;;14.80;99.90;;;;;;5067601;28;20459;-81
2022/07/17 03:19:55;;;;;;;7.43;2.00;;;14.80;99.90;;;;;;5067348;28;20485;-81
2022/07/17 03:22:23;;;;;;;4.77;1.87;;;14.80;99.90;;;;;;5067439;28;20459;-80
2022/07/17 03:24:50;;;;;;;9.73;1.90;;;14.70;99.90;;;;;;5067983;28;20447;-80
2022/07/17 03:27:18;;;;;;;4.50;1.70;;;14.70;99.90;;;;;;5068338;28;20483;-80
2022/07/17 03:29:45;;;;;;;3.60;1.50;;;14.60;99.90;;;;;;5066329;28;20456;-80
2022/07/17 03:32:12;;;;;;;4.53;1.73;;;14.60;99.90;;;;;;5067980;28;20490;-82
2022/07/17 03:34:39;;;;;;;4.87;1.70;;;14.60;99.90;;;;;;5067284;28;20492;-82
2022/07/17 03:37:06;;;;;;;2.83;1.40;;;14.60;99.90;;;;;;5067574;28;20496;-81
2022/07/17 03:39:34;;;;;;;6.60;1.90;;;14.60;99.90;;;;;;5067956;28;21028;-81
2022/07/17 03:42:01;;;;;;;8.13;2.10;;;14.50;99.90;;;;;;5067039;28;20495;-80
2022/07/17 03:44:29;;;;;;;5.83;2.10;;;14.50;99.90;;;;;;5066036;28;20466;-82
2022/07/17 03:46:56;;;;;;;5.40;1.93;;;14.50;99.90;;;;;;5066940;28;20467;-82
2022/07/17 03:49:23;;;;;;;7.10;2.43;;;14.50;99.90;;;;;;5066094;28;20872;-81
2022/07/17 03:51:50;;;;;;;6.57;2.60;;;14.40;99.90;;;;;;5066162;28;20493;-81
2022/07/17 03:54:16;;;;;;;6.57;2.80;;;14.40;99.90;;;;;;5065152;28;20497;-81
2022/07/17 03:56:45;;;;;;;4.57;2.40;;;14.40;99.90;;;;;;5065813;28;20840;-82
2022/07/17 03:59:12;;;;;;;6.00;2.73;;;14.40;99.90;;;;;;5065522;28;20479;-80
2022/07/17 04:01:38;;;;;;;4.60;2.80;;;14.40;99.90;;;;;;5065492;28;21065;-81
2022/07/17 04:04:05;;;;;;;5.40;2.93;;;14.40;99.90;;;;;;5065118;28;20951;-81
2022/07/17 04:06:32;;;;;;;6.40;2.37;;;14.40;99.90;;;;;;5065122;28;21235;-81
2022/07/17 04:08:59;;;;;;;5.23;2.73;;;14.40;99.90;;;;;;5065881;28;20986;-80
2022/07/17 04:11:26;;;;;;;7.10;2.37;;;14.40;99.90;;;;;;5066550;28;20892;-80
2022/07/17 04:13:54;;;;;;;6.70;2.53;;;14.40;99.90;;;;;;5065941;28;20811;-80
2022/07/17 04:16:21;;;;;;;6.47;2.43;;;14.40;99.90;;;;;;5065728;28;20912;-81
2022/07/17 04:18:48;;;;;;;6.30;2.60;;;14.40;99.90;;;;;;5065946;28;20462;-81
2022/07/17 04:21:15;;;;;;;4.00;2.03;;;14.30;99.90;;;;;;5065527;28;20482;-81
2022/07/17 04:23:42;;;;;;;8.97;3.53;;;14.40;99.90;;;;;;5064210;28;20485;-81
2022/07/17 04:26:09;;;;;;;4.00;1.80;;;14.30;99.90;;;;;;5064502;28;20487;-80
2022/07/17 04:28:35;;;;;;;4.23;2.10;;;14.30;99.90;;;;;;5065482;28;20474;-81
2022/07/17 04:31:04;;;;;;;4.03;2.07;;;14.40;99.90;;;;;;5066948;28;20457;-81
2022/07/17 04:33:31;;;;;;;5.87;2.03;;;14.40;99.90;;;;;;5065732;28;20501;-80
2022/07/17 04:35:58;;;;;;;5.37;2.30;;;14.40;99.90;;;;;;5065423;28;20499;-82
2022/07/17 04:38:25;;;;;;;5.30;2.17;;;14.50;99.90;;;;;;5067652;28;20472;-82
2022/07/17 04:40:52;;;;;;;5.90;2.67;;;14.50;99.90;;;;;;5067058;28;20481;-81
2022/07/17 04:43:18;;;;;;;5.10;2.23;;;14.60;99.90;;;;;;5066224;28;20480;-81
2022/07/17 04:45:45;;;;;;;4.60;1.60;;;14.60;99.90;;;;;;5067817;28;20470;-80
2022/07/17 04:48:13;;;;;;;7.90;2.33;;;14.60;99.90;;;;;;5066419;28;20479;-81
2022/07/17 04:50:40;;;;;;;5.50;2.07;;;14.70;99.90;;;;;;5067217;28;20475;-82
2022/07/17 04:53:07;;;;;;;4.67;2.20;;;14.70;99.90;;;;;;5064752;28;20902;-82
2022/07/17 04:55:34;;;;;;;6.10;2.40;;;14.80;99.90;;;;;;5065422;28;20490;-81
2022/07/17 04:58:01;;;;;;;3.70;2.10;;;14.80;99.90;;;;;;5065667;28;20464;-80
2022/07/17 05:00:28;;;;;;;4.90;2.40;;;14.80;99.90;;;;;;5067239;28;20480;-80
2022/07/17 05:02:55;;;;;;;4.67;2.40;;;14.90;99.90;;;;;;5066689;28;20461;-80
2022/07/17 05:05:24;;;;;;;6.10;2.87;;;14.90;99.90;;;;;;5067103;28;20548;-82
2022/07/17 05:07:50;;;;;;;5.53;2.30;;;15.00;99.90;;;;;;5067046;28;20522;-82
2022/07/17 05:10:17;;;;;;;6.10;2.47;;;15.00;99.90;;;;;;5066832;28;20454;-82
2022/07/17 05:12:44;;;;;;;4.70;2.30;;;15.10;99.90;;;;;;5066875;28;20457;-80
2022/07/17 05:15:11;;;;;;;6.23;2.37;;;15.10;99.90;;;;;;5066817;28;20507;-82
2022/07/17 05:17:38;;;;;;;4.70;2.20;;;15.20;99.90;;;;;;5067975;28;20455;-81
2022/07/17 05:20:07;;;;;;;4.90;2.40;;;15.20;99.90;;;;;;5069686;28;20479;-82
2022/07/17 05:22:36;;;;;;;4.60;2.10;;;15.30;99.90;;;;;;5069177;28;20451;-81
2022/07/17 05:25:02;;;;;;;5.77;2.00;;;15.30;99.90;;;;;;5070556;28;20479;-82
2022/07/17 05:27:30;;;;;;;3.77;2.20;;;15.40;99.90;;;;;;5070913;28;20479;-82
2022/07/17 05:29:57;;;;;;;4.00;1.90;;;15.50;99.90;;;;;;5071403;28;20543;-81
2022/07/17 05:32:23;;;;;;;5.77;2.20;;;15.50;99.90;;;;;;5069609;28;20483;-81
2022/07/17 05:34:50;;;;;;;5.70;2.27;;;15.50;99.90;;;;;;5070453;28;20486;-81
2022/07/17 05:37:17;;;;;;;4.50;2.00;;;15.60;99.90;;;;;;5071142;28;20868;-82
2022/07/17 05:39:45;;;;;;;4.80;1.90;;;15.70;99.90;;;;;;5071578;28;20479;-82
2022/07/17 05:42:12;;;;;;;5.30;2.00;;;15.70;99.90;;;;;;5071134;28;20445;-82
2022/07/17 05:44:39;;;;;;;4.63;2.07;;;15.80;99.90;;;;;;5071806;28;20500;-83
2022/07/17 05:47:06;;;;;;;5.50;2.30;;;15.80;99.90;;;;;;5072668;28;20470;-83
2022/07/17 05:49:34;;;;;;;3.67;2.13;;;15.90;99.90;;;;;;5065723;28;21026;-79
2022/07/17 05:52:00;;;;;;;5.57;2.50;;;15.90;99.90;;;;;;5056794;28;20448;-81
2022/07/17 05:54:27;;;;;;;4.13;1.67;;;16.00;99.90;;;;;;5067450;28;20452;-81
2022/07/17 05:56:56;;;;;;;5.40;2.60;;;16.10;99.90;;;;;;5068012;28;20904;-81
2022/07/17 05:59:22;;;;;;;3.43;1.50;;;16.20;99.90;;;;;;5068660;28;20458;-80
2022/07/17 06:01:49;;;;;;;3.00;1.40;;;16.20;99.90;;;;;;5069261;28;20448;-81
2022/07/17 06:04:16;;;;;;;5.10;2.00;;;16.40;99.90;;;;;;5068493;28;20452;-82
2022/07/17 06:06:52;;;;;;;3.80;1.70;;;16.40;99.90;;;;;;5070813;28;20479;-82
2022/07/17 06:09:19;;;;;;;4.77;1.73;;;16.50;99.90;;;;;;5059065;28;20455;-81
2022/07/17 06:11:46;;;;;;;7.43;1.60;;;16.60;99.90;;;;;;5071041;28;20491;-82
2022/07/17 06:14:14;;;;;;;4.60;1.70;;;16.70;99.90;;;;;;5073823;28;20455;-83
2022/07/17 06:16:41;;;;;;;5.43;1.73;;;16.80;99.90;;;;;;5078110;28;20505;-83
2022/07/17 06:19:08;;;;;;;4.07;1.83;;;16.80;99.90;;;;;;5078236;28;20461;-81
2022/07/17 06:21:35;;;;;;;7.20;1.53;;;16.90;99.90;;;;;;5061799;28;20453;-81
2022/07/17 06:24:02;;;;;;;5.40;1.80;;;16.90;99.90;;;;;;5065582;28;20439;-81
2022/07/17 06:26:29;;;;;;;6.80;1.70;;;16.90;99.90;;;;;;5061094;28;20463;-82
2022/07/17 06:28:56;;;;;;;3.50;1.63;;;16.90;99.90;;;;;;5062212;28;20484;-80
2022/07/17 06:31:24;;;;;;;6.00;1.80;;;17.00;99.90;;;;;;5066632;28;20951;-82
2022/07/17 06:33:51;;;;;;;5.13;1.70;;;17.20;99.90;;;;;;5061525;28;20456;-81
2022/07/17 06:36:18;;;;;;;6.00;2.00;;;17.20;99.90;;;;;;5067869;28;20530;-80
2022/07/17 06:38:45;;;;;;;4.20;1.63;;;17.30;99.90;;;;;;5068395;28;20480;-81
2022/07/17 06:41:11;;;;;;;4.30;1.57;;;17.30;99.90;;;;;;5066123;28;20456;-80
2022/07/17 06:43:38;;;;;;;6.30;2.07;;;17.50;99.90;;;;;;5068897;28;20462;-79
2022/07/17 06:46:05;;;;;;;4.67;1.47;;;17.50;99.90;;;;;;5080681;28;20484;-81
2022/07/17 06:48:33;;;;;;;3.53;1.40;;;17.50;99.90;;;;;;5061437;28;20455;-81
2022/07/17 06:51:00;;;;;;;3.13;1.20;;;17.60;99.90;;;;;;5068103;28;20487;-82
2022/07/17 06:53:27;;;;;;;8.20;1.60;;;17.80;99.90;;;;;;5063049;28;20447;-83
2022/07/17 06:55:54;;;;;;;3.27;1.50;;;17.90;99.90;;;;;;5063244;28;20525;-80
2022/07/17 06:58:21;;;;;;;5.37;1.97;;;18.00;99.90;;;;;;5061387;28;20468;-82
2022/07/17 07:00:48;;;;;;;3.40;1.33;;;18.10;99.90;;;;;;5065581;28;20466;-82
2022/07/17 07:03:14;;;;;;;3.97;1.83;;;18.20;99.90;;;;;;5057614;28;20487;-81
2022/07/17 07:05:43;;;;;;;4.00;1.43;;;18.20;99.90;;;;;;5065338;28;21105;-80
2022/07/17 07:08:09;;;;;;;3.33;1.20;;;18.40;99.90;;;;;;5066076;28;20446;-81
2022/07/17 07:10:37;;;;;;;6.10;1.93;;;18.40;99.90;;;;;;5067209;28;20546;-82
2022/07/17 07:13:04;;;;;;;7.13;1.53;;;18.50;99.90;;;;;;5065808;28;20563;-82
2022/07/17 07:15:31;;;;;;;4.23;1.53;;;18.60;99.90;;;;;;5066466;28;20532;-81
2022/07/17 07:17:58;;;;;;;5.60;1.30;;;18.70;99.90;;;;;;5065134;28;20447;-80
2022/07/17 07:20:25;;;;;;;3.47;1.70;;;18.80;99.90;;;;;;5067106;28;20477;-80
2022/07/17 07:22:53;;;;;;;3.53;1.10;;;18.90;99.90;;;;;;5065480;28;20491;-81
2022/07/17 07:25:21;;;;;;;4.30;1.40;;;19.00;99.90;;;;;;5061701;28;20562;-82
2022/07/17 07:27:48;;;;;;;4.20;1.57;;;19.10;99.90;;;;;;5066587;28;20522;-79
2022/07/17 07:30:15;;;;;;;4.57;1.30;;;19.20;99.90;;;;;;5065524;28;20477;-80
2022/07/17 07:32:42;;;;;;;4.10;1.53;;;19.30;99.90;;;;;;5066603;28;20550;-79
2022/07/17 07:35:10;;;;;;;3.60;1.30;;;19.20;99.90;;;;;;5066432;28;20475;-81
2022/07/17 07:37:37;;;;;;;4.83;1.40;;;19.30;99.90;;;;;;5066876;28;20535;-81
2022/07/17 07:40:07;;;;;;;4.30;1.80;;;19.40;99.90;;;;;;5064908;28;20851;-79
2022/07/17 07:42:34;;;;;;;6.73;1.73;;;19.30;99.90;;;;;;5065535;28;20447;-79
2022/07/17 07:45:01;;;;;;;5.63;2.13;;;19.40;99.90;;;;;;5063627;28;20448;-80
2022/07/17 07:47:28;;;;;;;5.37;1.60;;;19.50;99.90;;;;;;5065059;28;20538;-81
2022/07/17 07:49:55;;;;;;;3.97;1.57;;;19.70;99.90;;;;;;5065697;28;20476;-79
2022/07/17 07:52:23;;;;;;;4.70;1.47;;;19.70;99.90;;;;;;5066017;28;20459;-81
2022/07/17 07:54:50;;;;;;;5.73;1.50;;;19.80;99.90;;;;;;5064899;28;20527;-79
2022/07/17 07:57:18;;;;;;;3.33;1.40;;;19.90;99.90;;;;;;5065033;28;20499;-80
2022/07/17 07:59:45;;;;;;;3.87;1.30;;;20.00;99.90;;;;;;5066918;28;20459;-80
2022/07/17 08:02:12;;;;;;;4.87;1.10;;;20.10;99.90;;;;;;5068423;28;20483;-79
2022/07/17 08:04:38;;;;;;;2.63;1.13;;;20.30;99.90;;;;;;5061207;28;20464;-80
2022/07/17 08:07:05;;;;;;;5.43;1.30;;;20.40;99.90;;;;;;5062240;28;20479;-81
2022/07/17 08:09:32;;;;;;;3.20;1.47;;;20.30;99.90;;;;;;5065975;28;20569;-82
2022/07/17 08:11:59;;;;;;;6.27;1.57;;;20.30;99.90;;;;;;5067806;28;20538;-80
2022/07/17 08:14:27;;;;;;;3.93;1.20;;;20.40;99.90;;;;;;5067035;28;20451;-80
2022/07/17 08:16:54;;;;;;;4.87;1.30;;;20.50;99.90;;;;;;5065686;28;20535;-80
2022/07/17 08:19:21;;;;;;;5.40;1.40;;;20.70;99.90;;;;;;5066586;28;20459;-78
2022/07/17 08:21:48;;;;;;;3.13;1.30;;;20.80;99.90;;;;;;5068851;28;20455;-78
2022/07/17 08:24:15;;;;;;;3.70;1.30;;;20.90;99.90;;;;;;5067077;28;20499;-80
2022/07/17 08:26:42;;;;;;;3.60;1.00;;;21.10;99.90;;;;;;5068500;28;20467;-80
2022/07/17 08:29:09;;;;;;;3.60;0.90;;;21.20;99.90;;;;;;5068376;28;20482;-81
2022/07/17 08:31:37;;;;;;;3.40;1.23;;;21.40;99.90;;;;;;5068679;28;20535;-82
2022/07/17 08:34:04;;;;;;;3.83;1.20;;;21.60;99.90;;;;;;5068855;28;20480;-80
2022/07/17 08:36:31;;;;;;;4.10;1.20;;;21.70;99.90;;;;;;5068509;28;20962;-81
2022/07/17 08:38:58;;;;;;;3.27;1.20;;;21.90;99.90;;;;;;5067056;28;20523;-79
2022/07/17 08:41:25;;;;;;;3.23;1.13;;;22.10;99.90;;;;;;5066696;28;20527;-81
2022/07/17 08:43:54;;;;;;;5.20;1.30;;;22.20;99.90;;;;;;5066341;28;20480;-82
2022/07/17 08:46:24;;;;;;;4.03;1.30;;;22.40;99.90;;;;;;5068188;28;20470;-79
2022/07/17 08:48:58;;;;;;;4.03;1.40;;;22.60;99.90;;;;;;5065278;28;20455;-80
2022/07/17 08:51:26;;;;;;;2.53;0.93;;;22.70;99.90;;;;;;5068408;28;20429;-81
2022/07/17 08:53:54;;;;;;;3.20;1.00;;;22.90;99.90;;;;;;5067503;28;20452;-82
2022/07/17 08:56:21;;;;;;;4.67;1.40;;;23.00;99.90;;;;;;5067852;28;20547;-81
2022/07/17 08:58:48;;;;;;;5.23;1.00;;;23.20;99.90;;;;;;5067449;28;20452;-80
2022/07/17 09:01:15;;;;;;;3.80;1.10;;;23.40;99.90;;;;;;5068776;28;20475;-81
2022/07/17 09:03:53;;;;;;;3.70;1.03;;;23.60;99.90;;;;;;5065903;28;20448;-79
2022/07/17 09:06:22;;;;;;;4.30;1.50;;;23.70;99.90;;;;;;5061961;28;20494;-79
2022/07/17 09:08:49;;;;;;;3.97;1.43;;;24.00;99.90;;;;;;5067861;28;20488;-82
2022/07/17 09:11:16;;;;;;;2.67;1.10;;;24.10;99.90;;;;;;5069460;28;20468;-81
2022/07/17 09:13:46;;;;;;;2.93;1.00;;;23.90;99.90;;;;;;5068678;28;20484;-81
2022/07/17 09:16:13;;;;;;;2.90;1.10;;;24.20;99.90;;;;;;5069441;28;20483;-81
2022/07/17 09:18:45;;;;;;;3.83;1.27;;;24.40;99.90;;;;;;5069292;28;20471;-81
2022/07/17 09:21:19;;;;;;;2.93;1.20;;;24.20;99.90;;;;;;5069494;28;20455;-80
2022/07/17 09:23:57;;;;;;;3.37;1.30;;;24.40;99.90;;;;;;5068201;28;20459;-78
2022/07/17 09:26:25;;;;;;;12.10;2.03;;;24.70;99.90;;;;;;5066949;28;20885;-80
2022/07/17 09:28:52;;;;;;;4.80;1.40;;;24.60;99.90;;;;;;5068759;28;20451;-80
2022/07/17 09:31:26;;;;;;;5.87;1.40;;;24.80;99.90;;;;;;5069107;28;20482;-80
2022/07/17 09:33:52;;;;;;;4.63;1.33;;;25.00;99.90;;;;;;5067836;28;20483;-82
2022/07/17 09:36:21;;;;;;;4.67;1.43;;;25.00;99.90;;;;;;5068210;28;20564;-81
2022/07/17 09:38:52;;;;;;;3.47;1.20;;;25.10;99.90;;;;;;5071246;28;20448;-83
2022/07/17 09:41:21;;;;;;;4.30;1.10;;;25.30;99.90;;;;;;5075284;28;20504;-79
2022/07/17 09:43:52;;;;;;;4.93;1.20;;;25.40;99.90;;;;;;5075722;28;20479;-79
2022/07/17 09:46:21;;;;;;;5.67;1.40;;;25.50;99.90;;;;;;5066182;28;20503;-82
2022/07/17 09:48:51;;;;;;;3.10;1.10;;;25.60;99.90;;;;;;5064435;28;20456;-83
2022/07/17 09:51:22;;;;;;;6.30;1.40;;;25.80;99.90;;;;;;5064956;28;20476;-82
2022/07/17 09:53:53;;;;;;;3.50;1.20;;;25.90;99.90;;;;;;5064467;28;20472;-82
2022/07/17 09:56:23;;;;;;;4.30;1.30;;;25.90;99.90;;;;;;5064878;28;20503;-83
2022/07/17 09:58:51;;;;;;;4.20;1.33;;;26.00;99.90;;;;;;5093555;22;20523;-81
2022/07/17 10:01:19;;;;;;;8.07;1.50;;;26.20;99.90;;;;;;5064239;28;20480;-81
2022/07/17 10:03:48;;;;;;;3.50;1.23;;;26.30;99.90;;;;;;5064642;28;20471;-83
2022/07/17 10:06:16;;;;;;;5.83;1.33;;;26.40;99.90;;;;;;5062121;28;20511;-86
2022/07/17 10:08:43;;;;;;;2.73;1.10;;;26.50;99.90;;;;;;5063245;28;20472;-84
2022/07/17 10:11:12;;;;;;;7.10;1.40;;;26.70;99.90;;;;;;5062436;28;20455;-82
2022/07/17 10:13:41;;;;;;;4.03;1.43;;;26.90;99.90;;;;;;5062846;28;20537;-82
2022/07/17 10:16:09;;;;;;;3.10;1.10;;;27.00;99.90;;;;;;5064396;28;20499;-81
2022/07/17 10:18:41;;;;;;;3.10;1.30;;;27.00;99.90;;;;;;5072668;28;20535;-81
2022/07/17 10:21:19;;;;;;;6.43;2.73;;;27.10;99.90;;;;;;5056819;28;20453;-85
2022/07/17 10:24:05;;;;;;;4.30;1.57;;;27.20;99.90;;;;;;5054831;28;20889;-82
2022/07/17 10:26:35;;;;;;;4.37;1.63;;;27.40;99.90;;;;;;5054227;28;20471;-82
2022/07/17 10:29:01;;;;;;;6.43;1.63;;;27.70;99.90;;;;;;5049607;28;20499;-84
2022/07/17 10:31:31;;;;;;;4.33;1.40;;;27.90;99.90;;;;;;5052194;28;20462;-84
2022/07/17 10:33:59;;;;;;;4.73;1.43;;;27.90;99.90;;;;;;5050013;28;20448;-83
2022/07/17 10:36:42;;;;;;;3.70;1.20;;;27.90;99.90;;;;;;5051729;28;20537;-83
2022/07/17 10:39:18;;;;;;;6.40;1.80;;;27.60;99.90;;;;;;5053961;28;21022;-83
2022/07/17 10:41:58;;;;;;;5.40;1.90;;;27.70;99.90;;;;;;5057828;28;20447;-84
2022/07/17 10:44:27;;;;;;;4.93;1.73;;;27.90;99.90;;;;;;5072176;28;20511;-83
2022/07/17 10:46:55;;;;;;;4.23;1.20;;;27.90;99.90;;;;;;5061822;28;20444;-85
2022/07/17 10:49:22;;;;;;;4.53;1.50;;;27.80;99.90;;;;;;5060895;28;20495;-85
2022/07/17 10:51:52;;;;;;;4.20;1.60;;;27.90;99.90;;;;;;5061635;28;20449;-86
2022/07/17 10:54:22;;;;;;;4.93;1.20;;;28.10;99.90;;;;;;5058944;28;20519;-84
2022/07/17 10:56:52;;;;;;;4.00;1.40;;;28.20;99.90;;;;;;5064188;28;20484;-85
2022/07/17 10:59:19;;;;;;;3.27;1.00;;;28.60;99.00;;;;;;5028684;28;1076475;-83
2022/07/17 11:01:46;;;;;;;5.80;1.63;;;28.90;97.10;;;;;;5067953;28;20234;-85
2022/07/17 11:04:12;;;;;;;6.83;1.87;;;29.10;99.90;;;;;;5069101;28;20447;-84
2022/07/17 11:06:39;;;;;;;5.73;1.90;;;29.30;99.90;;;;;;5069726;28;20447;-87
2022/07/17 11:09:09;;;;;;;4.73;1.77;;;29.40;99.90;;;;;;5069965;28;20479;-85
2022/07/17 11:11:39;;;;;;;3.47;1.60;;;29.50;98.50;;;;;;5069794;28;20478;-82
2022/07/17 11:14:11;;;;;;;4.43;1.57;;;29.60;99.90;;;;;;5068617;28;20456;-82
2022/07/17 11:16:44;;;;;;;7.50;2.20;;;29.70;99.90;;;;;;5053076;28;20484;-81
2022/07/17 11:19:11;;;;;;;4.70;1.97;;;29.80;92.40;;;;;;5069104;28;20483;-81
2022/07/17 11:21:47;;;;;;;4.70;2.13;;;30.20;99.40;;;;;;5063488;28;20510;-83
2022/07/17 11:24:14;;;;;;;5.10;1.63;;;30.30;92.80;;;;;;5085076;28;20453;-84
2022/07/17 11:26:41;;;;;;;5.60;2.17;;;30.50;98.60;;;;;;5053797;28;20456;-84
2022/07/17 11:29:07;;;;;;;3.10;1.40;;;30.60;93.60;;;;;;5069080;28;20471;-84
2022/07/17 11:31:36;;;;;;;5.20;1.60;;;30.60;87.10;;;;;;5065637;28;20478;-84
2022/07/17 11:34:06;;;;;;;4.63;1.80;;;30.60;91.00;;;;;;5069064;28;20427;-84
2022/07/17 11:36:35;;;;;;;3.70;1.63;;;30.90;93.20;;;;;;5073324;28;20502;-85
2022/07/17 11:39:04;;;;;;;4.37;1.60;;;30.90;85.90;;;;;;5080543;28;20488;-85
2022/07/17 11:41:34;;;;;;;3.53;1.50;;;31.20;92.60;;;;;;5081103;28;20844;-84
2022/07/17 11:44:01;;;;;;;6.57;2.30;;;31.30;91.80;;;;;;5071689;28;20448;-85
2022/07/17 11:46:29;;;;;;;6.40;1.80;;;31.00;87.50;;;;;;5072879;28;20439;-84
2022/07/17 11:48:57;;;;;;;5.43;1.73;;;30.90;88.90;;;;;;5072511;28;20528;-83
2022/07/17 11:51:35;;;;;;;4.00;1.43;;;30.90;86.70;;;;;;5073653;28;20467;-84
2022/07/17 11:54:05;;;;;;;4.10;1.60;;;31.20;92.90;;;;;;5072064;28;20516;-85
2022/07/17 11:56:32;;;;;;;3.27;1.17;;;31.40;91.30;;;;;;5073416;28;20495;-84
2022/07/17 11:58:59;;;;;;;3.10;1.50;;;31.60;89.60;;;;;;5071957;28;20479;-84
2022/07/17 12:01:29;;;;;;;3.87;1.50;;;31.20;75.80;;;;;;5069321;28;20447;-85
2022/07/17 12:04:01;;;;;;;4.63;1.80;;;31.30;78.80;;;;;;5084290;28;20450;-84
2022/07/17 12:06:28;;;;;;;4.77;1.47;;;31.30;72.10;;;;;;5074098;28;20462;-84
2022/07/17 12:08:55;;;;;;;4.63;1.57;;;31.20;75.50;;;;;;5078124;28;20470;-85
2022/07/17 12:11:22;;;;;;;5.00;1.60;;;31.50;89.00;;;;;;5080526;28;20559;-86
2022/07/17 12:13:50;;;;;;;4.23;1.37;;;31.80;86.60;;;;;;5077360;28;20449;-85
2022/07/17 12:16:22;;;;;;;3.10;1.17;;;32.10;86.00;;;;;;5078945;28;20436;-85
2022/07/17 12:19:04;;;;;;;2.80;1.23;;;32.10;85.80;;;;;;5080160;28;20439;-85
2022/07/17 12:21:32;;;;;;;5.67;1.53;;;32.40;85.80;;;;;;5068431;28;20448;-84
2022/07/17 12:24:03;;;;;;;3.60;1.20;;;32.20;86.80;;;;;;5070352;28;20967;-83
2022/07/17 12:26:30;;;;;;;4.57;1.47;;;32.40;86.00;;;;;;5069210;28;20452;-84
2022/07/17 12:28:57;;;;;;;3.63;1.50;;;32.20;78.40;;;;;;5070967;28;20480;-83
2022/07/17 12:31:24;;;;;;;3.50;1.30;;;32.40;74.30;;;;;;5070126;28;20447;-86
2022/07/17 12:33:53;;;;;;;4.40;1.37;;;32.50;79.00;;;;;;5068147;28;20490;-84
2022/07/17 12:36:23;;;;;;;4.43;1.30;;;32.80;66.80;;;;;;5054142;28;20433;-84
2022/07/17 12:38:50;;;;;;;4.50;1.30;;;32.70;79.30;;;;;;5068813;28;21223;-83
2022/07/17 12:41:17;;;;;;;4.07;1.33;;;33.10;71.00;;;;;;5071344;28;20456;-83
2022/07/17 12:43:44;;;;;;;7.33;1.80;;;33.40;77.90;;;;;;5068531;28;20452;-82
2022/07/17 12:46:12;;;;;;;6.20;2.10;;;33.50;71.00;;;;;;5057036;28;20477;-83
2022/07/17 12:48:40;;;;;;;3.77;1.23;;;33.80;78.10;;;;;;5072543;28;20509;-83